createdAt,value
2022-08-19T00:01:28.788Z,20.77
2022-08-19T00:03:56.935Z,20.75
2022-08-19T00:06:26.133Z,20.74
2022-08-19T00:08:53.727Z,20.69
2022-08-19T00:11:25.486Z,20.66
2022-08-19T00:13:54.209Z,20.63
2022-08-19T00:16:26.877Z,20.60
2022-08-19T00:18:56.052Z,20.58
2022-08-19T00:21:24.188Z,20.52
2022-08-19T00:23:54.073Z,20.48
2022-08-19T00:26:22.092Z,20.43
2022-08-19T00:28:49.798Z,20.49
2022-08-19T00:31:17.474Z,20.52
2022-08-19T00:33:45.282Z,20.45
2022-08-19T00:36:13.321Z,20.37
2022-08-19T00:38:44.169Z,20.44
2022-08-19T00:41:15.434Z,20.37
2022-08-19T00:43:43.066Z,20.30
2022-08-19T00:46:11.024Z,20.37
2022-08-19T00:48:38.746Z,20.38
2022-08-19T00:51:07.548Z,20.36
2022-08-19T00:53:35.952Z,20.31
2022-08-19T00:56:07.059Z,20.28
2022-08-19T00:58:37.187Z,20.28
2022-08-19T01:01:08.511Z,20.30
2022-08-19T01:03:57.158Z,20.23
2022-08-19T01:06:23.905Z,20.26
2022-08-19T01:08:51.604Z,20.21
2022-08-19T01:11:19.377Z,20.20
2022-08-19T01:13:49.815Z,20.21
2022-08-19T01:16:20.352Z,20.14
2022-08-19T01:18:48.357Z,20.09
2022-08-19T01:21:23.885Z,20.08
2022-08-19T01:23:53.142Z,20.07
2022-08-19T01:26:25.058Z,20.10
2022-08-19T01:28:59.617Z,20.05
2022-08-19T01:31:32.726Z,20.02
2022-08-19T01:34:02.258Z,20.06
2022-08-19T01:36:32.835Z,20.03
2022-08-19T01:39:02.796Z,20.04
2022-08-19T01:41:30.504Z,20.03
2022-08-19T01:44:16.920Z,19.97
2022-08-19T01:46:47.998Z,19.96
2022-08-19T01:49:15.839Z,19.91
2022-08-19T01:51:43.472Z,20.01
2022-08-19T01:54:23.160Z,19.95
2022-08-19T01:57:00.237Z,19.96
2022-08-19T01:59:28.167Z,19.97
2022-08-19T02:01:55.997Z,19.92
2022-08-19T02:04:24.259Z,19.90
2022-08-19T02:06:51.878Z,19.90
2022-08-19T02:09:20.840Z,19.94
2022-08-19T02:11:48.385Z,19.88
2022-08-19T02:14:16.116Z,19.85
2022-08-19T02:16:43.736Z,19.90
2022-08-19T02:19:11.285Z,19.79
2022-08-19T02:21:39.233Z,19.79
2022-08-19T02:24:06.908Z,19.70
2022-08-19T02:26:35.889Z,19.76
2022-08-19T02:29:03.517Z,19.70
2022-08-19T02:31:31.152Z,19.67
2022-08-19T02:33:59.133Z,19.69
2022-08-19T02:36:27.383Z,19.58
2022-08-19T02:38:55.547Z,19.67
2022-08-19T02:41:27.894Z,19.68
2022-08-19T02:44:29.421Z,19.71
2022-08-19T02:46:47.992Z,19.66
2022-08-19T02:49:17.078Z,19.70
2022-08-19T02:51:47.280Z,19.77
2022-08-19T02:54:16.308Z,19.89
2022-08-19T02:56:45.358Z,19.89
2022-08-19T02:59:14.261Z,19.76
2022-08-19T03:01:43.450Z,19.82
2022-08-19T03:04:14.198Z,19.83
2022-08-19T03:06:44.926Z,19.76
2022-08-19T03:09:13.250Z,19.75
2022-08-19T03:11:41.407Z,19.73
2022-08-19T03:14:10.590Z,19.74
2022-08-19T03:16:43.930Z,19.85
2022-08-19T03:19:11.478Z,19.77
2022-08-19T03:21:39.050Z,19.73
2022-08-19T03:24:09.629Z,19.79
2022-08-19T03:26:40.985Z,19.67
2022-08-19T03:29:11.574Z,19.72
2022-08-19T03:31:52.027Z,19.80
2022-08-19T03:34:23.266Z,19.63
2022-08-19T03:36:50.851Z,19.61
2022-08-19T03:39:18.958Z,19.72
2022-08-19T03:41:49.869Z,19.73
2022-08-19T03:44:38.438Z,19.56
2022-08-19T03:47:08.868Z,19.57
2022-08-19T03:49:37.462Z,19.52
2022-08-19T03:52:08.276Z,19.51
2022-08-19T03:54:36.813Z,19.53
2022-08-19T03:57:05.024Z,19.51
2022-08-19T03:59:36.193Z,19.51
2022-08-19T04:02:09.802Z,19.59
2022-08-19T04:04:39.652Z,19.56
2022-08-19T04:07:07.373Z,19.54
2022-08-19T04:09:37.479Z,19.49
2022-08-19T04:12:07.583Z,19.43
2022-08-19T04:14:35.914Z,19.39
2022-08-19T04:17:05.562Z,19.33
2022-08-19T04:19:33.984Z,19.30
2022-08-19T04:22:02.960Z,19.29
2022-08-19T04:24:30.499Z,19.31
2022-08-19T04:26:58.107Z,19.24
2022-08-19T04:29:27.879Z,19.33
2022-08-19T04:31:56.874Z,19.40
2022-08-19T04:34:27.361Z,19.58
2022-08-19T04:36:56.922Z,19.71
2022-08-19T04:39:49.102Z,19.89
2022-08-19T04:42:36.027Z,20.00
2022-08-19T04:45:05.364Z,20.06
2022-08-19T04:47:47.552Z,20.16
2022-08-19T04:50:24.817Z,20.24
2022-08-19T04:52:53.443Z,20.23
2022-08-19T04:55:22.483Z,20.22
2022-08-19T04:57:51.580Z,20.20
2022-08-19T05:00:19.390Z,20.26
2022-08-19T05:02:46.943Z,20.26
2022-08-19T05:05:15.047Z,20.30
2022-08-19T05:07:42.986Z,20.32
2022-08-19T05:10:11.403Z,20.36
2022-08-19T05:12:40.406Z,20.45
2022-08-19T05:15:09.864Z,20.65
2022-08-19T05:17:38.954Z,20.75
2022-08-19T05:20:26.047Z,20.76
2022-08-19T05:22:53.861Z,20.83
2022-08-19T05:25:23.152Z,20.84
2022-08-19T05:27:52.069Z,20.90
2022-08-19T05:30:33.632Z,20.96
2022-08-19T05:33:10.274Z,20.97
2022-08-19T05:35:38.899Z,21.01
2022-08-19T05:38:08.114Z,21.10
2022-08-19T05:40:36.941Z,21.17
2022-08-19T05:43:07.373Z,21.24
2022-08-19T05:45:39.674Z,21.28
2022-08-19T05:48:07.680Z,21.30
2022-08-19T05:50:35.198Z,21.34
2022-08-19T05:53:02.716Z,21.44
2022-08-19T05:55:30.299Z,21.48
2022-08-19T05:57:57.885Z,21.56
2022-08-19T06:00:26.899Z,21.69
2022-08-19T06:02:55.557Z,21.78
2022-08-19T06:05:23.388Z,21.76
2022-08-19T06:07:50.952Z,21.73
2022-08-19T06:10:18.575Z,21.79
2022-08-19T06:12:46.129Z,21.86
2022-08-19T06:15:15.318Z,21.95
2022-08-19T06:17:46.076Z,21.99
2022-08-19T06:20:15.937Z,21.99
2022-08-19T06:22:45.731Z,22.02
2022-08-19T06:25:14.688Z,22.08
2022-08-19T06:30:30.783Z,22.30
2022-08-19T06:32:59.697Z,22.34
2022-08-19T06:35:27.906Z,22.37
2022-08-19T06:37:55.590Z,22.48
2022-08-19T06:40:23.447Z,22.46
2022-08-19T06:42:54.887Z,22.43
2022-08-19T06:45:24.715Z,22.49
2022-08-19T06:47:56.745Z,22.54
2022-08-19T06:50:26.194Z,22.58
2022-08-19T06:52:55.249Z,22.64
2022-08-19T06:55:23.081Z,22.69
2022-08-19T06:57:54.244Z,22.67
2022-08-19T07:00:22.317Z,22.70
2022-08-19T07:02:54.325Z,22.70
2022-08-19T07:05:24.758Z,22.80
2022-08-19T07:07:52.314Z,22.85
2022-08-19T07:10:20.336Z,22.72
2022-08-19T07:12:48.531Z,22.81
2022-08-19T07:15:16.784Z,22.85
2022-08-19T07:17:48.006Z,22.97
2022-08-19T07:20:20.847Z,22.98
2022-08-19T07:22:50.189Z,22.98
2022-08-19T07:25:18.780Z,23.05
2022-08-19T07:27:46.571Z,23.08
2022-08-19T07:30:23.252Z,23.21
2022-08-19T07:32:53.924Z,23.24
2022-08-19T07:35:21.520Z,23.24
2022-08-19T07:37:50.399Z,23.29
2022-08-19T07:40:18.034Z,23.35
2022-08-19T07:42:45.594Z,23.40
2022-08-19T07:45:14.010Z,23.42
2022-08-19T07:47:47.533Z,23.44
2022-08-19T07:50:20.261Z,23.54
2022-08-19T07:52:48.842Z,23.59
2022-08-19T07:55:41.526Z,23.52
2022-08-19T07:58:08.563Z,23.60
2022-08-19T08:00:37.241Z,23.63
2022-08-19T08:03:05.213Z,23.64
2022-08-19T08:05:50.635Z,23.78
2022-08-19T08:08:44.116Z,23.79
2022-08-19T08:11:20.698Z,23.79
2022-08-19T08:14:00.383Z,23.83
2022-08-19T08:16:30.851Z,23.87
2022-08-19T08:18:58.878Z,23.88
2022-08-19T08:21:26.465Z,23.90
2022-08-19T08:23:56.047Z,23.96
2022-08-19T08:26:25.921Z,23.98
2022-08-19T08:28:53.646Z,23.99
2022-08-19T08:31:21.488Z,24.06
2022-08-19T08:33:49.327Z,24.11
2022-08-19T08:36:17.157Z,24.17
2022-08-19T08:38:46.324Z,24.20
2022-08-19T08:41:22.811Z,24.18
2022-08-19T08:43:54.184Z,24.24
2022-08-19T08:46:31.014Z,24.37
2022-08-19T08:49:05.218Z,24.44
2022-08-19T08:51:36.871Z,24.40
2022-08-19T08:54:09.885Z,24.52
2022-08-19T08:56:40.065Z,24.62
2022-08-19T08:59:14.648Z,24.59
2022-08-19T09:01:42.050Z,24.62
2022-08-19T09:04:09.794Z,24.63
2022-08-19T09:06:46.130Z,24.77
2022-08-19T09:09:18.614Z,24.83
2022-08-19T09:11:57.495Z,24.99
2022-08-19T09:14:50.256Z,25.04
2022-08-19T09:17:19.553Z,25.12
2022-08-19T09:19:53.905Z,25.28
2022-08-19T09:22:25.814Z,25.30
2022-08-19T09:24:56.059Z,25.51
2022-08-19T09:27:42.185Z,25.55
2022-08-19T09:30:16.157Z,25.75
2022-08-19T09:32:44.318Z,25.89
2022-08-19T09:35:13.402Z,26.03
2022-08-19T09:37:41.486Z,26.11
2022-08-19T09:40:12.281Z,26.25
2022-08-19T09:42:50.412Z,26.37
2022-08-19T09:45:23.900Z,26.45
2022-08-19T09:47:54.336Z,26.33
2022-08-19T09:50:23.974Z,26.23
2022-08-19T09:52:54.171Z,26.25
2022-08-19T09:55:31.089Z,26.32
2022-08-19T09:58:00.461Z,26.24
2022-08-19T10:00:29.810Z,26.20
2022-08-19T10:02:57.337Z,26.33
2022-08-19T10:05:42.684Z,26.27
2022-08-19T10:08:13.628Z,26.39
2022-08-19T10:10:46.510Z,26.38
2022-08-19T10:13:16.113Z,26.31
2022-08-19T10:15:48.193Z,26.42
2022-08-19T10:18:18.657Z,26.66
2022-08-19T10:20:51.776Z,26.88
2022-08-19T10:23:19.992Z,27.07
2022-08-19T10:25:48.299Z,27.00
2022-08-19T10:28:16.129Z,26.99
2022-08-19T10:30:48.783Z,27.31
2022-08-19T10:33:39.279Z,27.28
2022-08-19T10:36:06.873Z,27.34
2022-08-19T10:38:34.750Z,27.43
2022-08-19T10:41:09.078Z,27.55
2022-08-19T10:43:39.060Z,27.64
2022-08-19T10:46:14.252Z,27.68
2022-08-19T10:48:45.839Z,27.67
2022-08-19T10:51:31.676Z,27.84
2022-08-19T10:54:00.645Z,27.77
2022-08-19T10:56:46.920Z,27.78
2022-08-19T10:59:15.474Z,27.86
2022-08-19T11:01:46.238Z,27.99
2022-08-19T11:04:18.189Z,28.15
2022-08-19T11:06:48.331Z,28.10
2022-08-19T11:09:16.546Z,28.09
2022-08-19T11:11:44.611Z,28.28
2022-08-19T11:14:16.198Z,28.31
2022-08-19T11:16:45.072Z,28.43
2022-08-19T11:19:15.169Z,28.46
2022-08-19T11:21:45.810Z,28.45
2022-08-19T11:24:19.225Z,28.50
2022-08-19T11:26:46.863Z,28.77
2022-08-19T11:29:15.261Z,28.89
2022-08-19T11:31:46.923Z,28.90
2022-08-19T11:34:18.035Z,29.05
2022-08-19T11:36:48.358Z,28.99
2022-08-19T11:39:18.726Z,29.10
2022-08-19T11:41:46.896Z,29.07
2022-08-19T11:44:17.517Z,28.99
2022-08-19T11:46:47.604Z,29.16
2022-08-19T11:49:16.102Z,29.30
2022-08-19T11:51:44.819Z,29.29
2022-08-19T11:54:13.636Z,29.52
2022-08-19T11:56:42.294Z,29.52
2022-08-19T11:59:14.668Z,29.58
2022-08-19T12:01:43.470Z,29.68
2022-08-19T12:04:13.182Z,29.94
2022-08-19T12:06:42.529Z,30.04
2022-08-19T12:09:11.756Z,29.88
2022-08-19T12:11:40.304Z,29.82
2022-08-19T12:14:09.146Z,29.85
2022-08-19T12:16:46.589Z,29.96
2022-08-19T12:19:22.302Z,29.91
2022-08-19T12:21:50.976Z,29.99
2022-08-19T12:24:23.717Z,30.13
2022-08-19T12:26:52.482Z,30.17
2022-08-19T12:29:23.603Z,30.28
2022-08-19T12:31:52.140Z,30.18
2022-08-19T12:34:21.661Z,30.15
2022-08-19T12:36:50.311Z,30.07
2022-08-19T12:39:18.214Z,30.15
2022-08-19T12:41:51.517Z,30.16
2022-08-19T12:44:28.873Z,30.08
2022-08-19T12:46:57.372Z,30.18
2022-08-19T12:49:51.902Z,30.04
2022-08-19T12:52:16.637Z,30.14
2022-08-19T12:54:54.684Z,29.91
2022-08-19T12:57:23.156Z,29.84
2022-08-19T12:59:55.020Z,29.83
2022-08-19T13:02:23.310Z,30.02
2022-08-19T13:04:52.184Z,29.96
2022-08-19T13:07:19.739Z,30.00
2022-08-19T13:09:47.264Z,30.16
2022-08-19T13:12:14.803Z,30.06
2022-08-19T13:14:43.211Z,29.94
2022-08-19T13:17:12.538Z,30.18
2022-08-19T13:19:40.943Z,30.32
2022-08-19T13:22:13.243Z,30.46
2022-08-19T13:24:46.871Z,30.51
2022-08-19T13:27:15.132Z,30.16
2022-08-19T13:30:00.434Z,30.10
2022-08-19T13:32:45.915Z,30.30
2022-08-19T13:35:16.857Z,30.35
2022-08-19T13:37:46.325Z,30.64
2022-08-19T13:40:19.057Z,30.73
2022-08-19T13:42:50.498Z,30.74
2022-08-19T13:45:20.467Z,30.65
2022-08-19T13:47:48.955Z,30.64
2022-08-19T13:50:19.174Z,30.64
2022-08-19T13:52:49.096Z,30.67
2022-08-19T13:55:24.787Z,30.60
2022-08-19T13:57:53.818Z,30.47
2022-08-19T14:00:25.559Z,30.64
2022-08-19T14:02:55.099Z,30.64
2022-08-19T14:05:23.053Z,30.65
2022-08-19T14:07:52.062Z,30.70
2022-08-19T14:10:20.166Z,30.71
2022-08-19T14:12:48.441Z,30.81
2022-08-19T14:15:17.284Z,30.87
2022-08-19T14:17:47.562Z,30.80
2022-08-19T14:20:18.337Z,31.00
2022-08-19T14:22:47.552Z,31.04
2022-08-19T14:25:21.677Z,31.02
2022-08-19T14:27:50.427Z,30.92
2022-08-19T14:30:21.912Z,30.81
2022-08-19T14:32:49.516Z,30.69
2022-08-19T14:35:18.947Z,30.79
2022-08-19T14:37:47.320Z,30.79
2022-08-19T14:40:18.591Z,30.49
2022-08-19T14:42:46.510Z,30.70
2022-08-19T14:45:14.387Z,30.87
2022-08-19T14:47:42.020Z,30.93
2022-08-19T14:50:18.259Z,31.13
2022-08-19T14:52:47.298Z,31.31
2022-08-19T14:55:17.037Z,31.44
2022-08-19T14:57:46.054Z,31.50
2022-08-19T15:00:15.451Z,31.61
2022-08-19T15:02:44.988Z,31.69
2022-08-19T15:05:13.126Z,31.51
2022-08-19T15:07:41.791Z,31.39
2022-08-19T15:10:11.589Z,31.17
2022-08-19T15:12:41.672Z,31.03
2022-08-19T15:15:13.566Z,30.91
2022-08-19T15:17:45.300Z,30.97
2022-08-19T15:20:23.653Z,30.80
2022-08-19T15:22:51.240Z,30.90
2022-08-19T15:25:21.182Z,30.86
2022-08-19T15:27:51.137Z,30.99
2022-08-19T15:30:22.990Z,31.03
2022-08-19T15:32:53.348Z,31.04
2022-08-19T15:35:21.537Z,31.07
2022-08-19T15:37:51.152Z,31.00
2022-08-19T15:40:19.747Z,30.88
2022-08-19T15:42:47.778Z,30.63
2022-08-19T15:45:18.536Z,30.38
2022-08-19T15:47:46.208Z,30.33
2022-08-19T15:50:16.322Z,30.14
2022-08-19T15:52:49.662Z,29.84
2022-08-19T15:55:21.329Z,29.77
2022-08-19T15:58:27.744Z,29.57
2022-08-19T16:01:15.576Z,29.69
2022-08-19T16:04:01.501Z,29.70
2022-08-19T16:06:29.356Z,29.77
2022-08-19T16:08:58.726Z,29.67
2022-08-19T16:11:30.301Z,29.46
2022-08-19T16:13:59.446Z,29.52
2022-08-19T16:16:33.657Z,29.39
2022-08-19T16:19:04.016Z,29.49
2022-08-19T16:21:33.138Z,29.52
2022-08-19T16:24:02.609Z,29.31
2022-08-19T16:26:31.070Z,29.34
2022-08-19T16:29:00.428Z,29.39
2022-08-19T16:31:29.977Z,29.32
2022-08-19T16:33:58.067Z,29.25
2022-08-19T16:36:25.698Z,29.19
2022-08-19T16:38:54.462Z,29.06
2022-08-19T16:41:23.259Z,29.07
2022-08-19T16:43:52.406Z,28.97
2022-08-19T16:46:21.400Z,28.94
2022-08-19T16:48:51.688Z,28.97
2022-08-19T16:51:19.363Z,28.84
2022-08-19T16:53:47.003Z,28.81
2022-08-19T16:56:15.267Z,28.74
2022-08-19T16:58:43.165Z,28.83
2022-08-19T17:01:11.737Z,28.70
2022-08-19T17:03:39.844Z,28.66
2022-08-19T17:06:20.324Z,28.63
2022-08-19T17:08:49.293Z,28.65
2022-08-19T17:11:19.161Z,28.43
2022-08-19T17:13:47.921Z,28.25
2022-08-19T17:16:16.347Z,28.34
2022-08-19T17:18:44.033Z,28.36
2022-08-19T17:21:13.403Z,28.22
2022-08-19T17:23:43.208Z,28.17
2022-08-19T17:26:14.119Z,28.12
2022-08-19T17:28:47.158Z,28.11
2022-08-19T17:31:15.135Z,27.92
2022-08-19T17:33:42.837Z,27.95
2022-08-19T17:36:17.424Z,27.99
2022-08-19T17:38:45.287Z,28.02
2022-08-19T17:41:13.147Z,27.95
2022-08-19T17:43:43.803Z,27.86
2022-08-19T17:46:18.123Z,27.92
2022-08-19T17:48:51.512Z,27.91
2022-08-19T17:51:24.483Z,27.81
2022-08-19T17:53:53.644Z,27.81
2022-08-19T17:56:21.737Z,27.75
2022-08-19T17:58:57.645Z,27.64
2022-08-19T18:01:32.718Z,27.62
2022-08-19T18:04:17.070Z,27.71
2022-08-19T18:06:53.119Z,27.78
2022-08-19T18:09:23.878Z,27.73
2022-08-19T18:11:53.474Z,27.78
2022-08-19T18:14:30.498Z,27.78
2022-08-19T18:17:01.841Z,27.58
2022-08-19T18:19:29.509Z,27.64
2022-08-19T18:22:12.925Z,27.56
2022-08-19T18:24:41.438Z,27.52
2022-08-19T18:27:09.927Z,27.56
2022-08-19T18:29:38.360Z,27.46
2022-08-19T18:32:09.039Z,27.32
2022-08-19T18:34:37.281Z,27.30
2022-08-19T18:37:05.283Z,27.24
2022-08-19T18:39:57.291Z,27.17
2022-08-19T18:42:42.578Z,27.11
2022-08-19T18:45:29.026Z,27.00
2022-08-19T18:48:26.438Z,26.80
2022-08-19T18:50:55.980Z,26.70
2022-08-19T18:53:23.637Z,26.81
2022-08-19T18:55:54.993Z,26.73
2022-08-19T18:58:26.125Z,26.77
2022-08-19T19:00:56.599Z,26.66
2022-08-19T19:03:24.664Z,26.65
2022-08-19T19:05:52.647Z,26.46
2022-08-19T19:08:20.641Z,26.48
2022-08-19T19:10:56.817Z,26.44
2022-08-19T19:13:24.591Z,26.39
2022-08-19T19:15:52.180Z,26.36
2022-08-19T19:18:19.767Z,26.22
2022-08-19T19:20:47.335Z,26.25
2022-08-19T19:23:14.908Z,26.25
2022-08-19T19:25:50.025Z,26.27
2022-08-19T19:28:25.675Z,26.22
2022-08-19T19:30:54.082Z,26.29
2022-08-19T19:33:21.714Z,26.21
2022-08-19T19:35:49.464Z,26.21
2022-08-19T19:38:17.199Z,26.19
2022-08-19T19:40:45.424Z,26.23
2022-08-19T19:43:13.007Z,26.10
2022-08-19T19:45:41.917Z,26.18
2022-08-19T19:48:09.937Z,26.10
2022-08-19T19:50:37.465Z,26.08
2022-08-19T19:53:06.230Z,26.05
2022-08-19T19:55:33.815Z,25.98
2022-08-19T19:58:01.507Z,25.91
2022-08-19T20:00:29.865Z,25.83
2022-08-19T20:02:58.809Z,25.72
2022-08-19T20:05:27.213Z,25.87
2022-08-19T20:08:13.104Z,25.75
2022-08-19T20:10:43.179Z,25.70
2022-08-19T20:13:12.954Z,25.73
2022-08-19T20:15:43.351Z,25.74
2022-08-19T20:18:14.373Z,25.73
2022-08-19T20:20:42.477Z,25.67
2022-08-19T20:23:10.240Z,25.66
2022-08-19T20:25:38.943Z,25.63
2022-08-19T20:28:06.533Z,25.60
2022-08-19T20:30:34.469Z,25.56
2022-08-19T20:33:06.722Z,25.46
2022-08-19T20:35:40.270Z,25.36
2022-08-19T20:38:14.525Z,25.46
2022-08-19T20:40:42.236Z,25.43
2022-08-19T20:43:11.826Z,25.30
2022-08-19T20:45:42.498Z,25.35
2022-08-19T20:48:12.353Z,25.28
2022-08-19T20:50:44.699Z,25.30
2022-08-19T20:53:16.102Z,25.24
2022-08-19T20:55:45.196Z,25.23
2022-08-19T20:58:13.615Z,25.22
2022-08-19T21:00:41.590Z,25.20
2022-08-19T21:03:09.263Z,25.22
2022-08-19T21:05:36.870Z,25.24
2022-08-19T21:08:06.068Z,25.23
2022-08-19T21:10:33.730Z,25.18
2022-08-19T21:13:03.654Z,25.24
2022-08-19T21:15:31.538Z,25.15
2022-08-19T21:17:59.613Z,25.17
2022-08-19T21:20:27.175Z,25.13
2022-08-19T21:22:54.737Z,25.18
2022-08-19T21:25:23.637Z,25.17
2022-08-19T21:27:51.421Z,25.10
2022-08-19T21:30:18.981Z,25.11
2022-08-19T21:32:50.601Z,25.13
2022-08-19T21:35:20.384Z,25.15
2022-08-19T21:37:48.015Z,25.16
2022-08-19T21:40:16.513Z,25.16
2022-08-19T21:42:45.974Z,25.08
2022-08-19T21:45:15.114Z,25.14
2022-08-19T21:47:42.686Z,25.16
2022-08-19T21:50:11.868Z,25.21
2022-08-19T21:52:40.830Z,25.17
2022-08-19T21:55:10.376Z,25.17
2022-08-19T21:57:41.325Z,25.08
2022-08-19T22:00:16.570Z,25.07
2022-08-19T22:02:44.225Z,25.07
2022-08-19T22:05:12.803Z,25.02
2022-08-19T22:07:42.595Z,24.87
2022-08-19T22:10:11.532Z,24.85
2022-08-19T22:12:46.042Z,24.82
2022-08-19T22:15:22.021Z,24.86
2022-08-19T22:17:49.756Z,24.89
2022-08-19T22:20:19.612Z,24.83
2022-08-19T22:22:49.661Z,24.79
2022-08-19T22:25:31.194Z,24.81
2022-08-19T22:28:00.628Z,24.83
2022-08-19T22:30:33.785Z,24.86
2022-08-19T22:33:04.740Z,24.81
2022-08-19T22:35:34.371Z,24.73
2022-08-19T22:38:02.795Z,24.78
2022-08-19T22:40:32.056Z,24.73
2022-08-19T22:43:02.065Z,24.78
2022-08-19T22:45:32.301Z,24.85
2022-08-19T22:48:00.733Z,24.86
2022-08-19T22:50:28.387Z,24.74
2022-08-19T22:52:57.883Z,24.72
2022-08-19T22:55:25.827Z,24.71
2022-08-19T22:57:54.309Z,24.70
2022-08-19T23:00:22.387Z,24.69
2022-08-19T23:02:52.565Z,24.59
2022-08-19T23:05:22.469Z,24.54
2022-08-19T23:07:52.202Z,24.38
2022-08-19T23:10:27.351Z,24.37
2022-08-19T23:12:56.713Z,24.26
2022-08-19T23:15:27.501Z,24.24
2022-08-19T23:18:00.445Z,24.13
2022-08-19T23:20:31.367Z,24.13
2022-08-19T23:22:58.986Z,24.03
2022-08-19T23:25:30.254Z,24.03
2022-08-19T23:28:15.699Z,23.94
2022-08-19T23:30:45.266Z,23.91
2022-08-19T23:33:24.480Z,23.80
2022-08-19T23:35:54.339Z,23.72
2022-08-19T23:38:23.218Z,23.70
2022-08-19T23:40:52.715Z,23.69
2022-08-19T23:43:24.603Z,23.43
2022-08-19T23:45:53.689Z,23.49
2022-08-19T23:48:28.380Z,23.52
2022-08-19T23:50:57.066Z,23.43
2022-08-19T23:53:24.794Z,23.46
2022-08-19T23:55:52.622Z,23.25
2022-08-19T23:58:22.269Z,23.31
